sensor_id;sensor_type;location;lat;lon;timestamp;pressure;altitude;pressure_sealevel;temperature;humidity
60697;BME280;46536;54.376;19.858;2022-12-16T00:00:32;101440.52;;;-3.22;69.95
60697;BME280;46536;54.376;19.858;2022-12-16T00:03:19;101445.05;;;-3.24;69.97
60697;BME280;46536;54.376;19.858;2022-12-16T00:05:48;101450.77;;;-3.26;69.85
60697;BME280;46536;54.376;19.858;2022-12-16T00:08:19;101452.42;;;-3.32;69.90
60697;BME280;46536;54.376;19.858;2022-12-16T00:10:47;101452.41;;;-3.32;70.13
60697;BME280;46536;54.376;19.858;2022-12-16T00:13:22;101450.71;;;-3.32;69.93
60697;BME280;46536;54.376;19.858;2022-12-16T00:15:51;101450.30;;;-3.30;70.05
60697;BME280;46536;54.376;19.858;2022-12-16T00:18:21;101456.11;;;-3.29;70.18
60697;BME280;46536;54.376;19.858;2022-12-16T00:20:53;101460.84;;;-3.30;70.06
60697;BME280;46536;54.376;19.858;2022-12-16T00:23:22;101451.77;;;-3.27;70.14
60697;BME280;46536;54.376;19.858;2022-12-16T00:25:51;101448.41;;;-3.25;69.91
60697;BME280;46536;54.376;19.858;2022-12-16T00:28:20;101446.62;;;-3.23;70.19
60697;BME280;46536;54.376;19.858;2022-12-16T00:30:53;101447.50;;;-3.21;70.01
60697;BME280;46536;54.376;19.858;2022-12-16T00:33:24;101447.55;;;-3.20;69.99
60697;BME280;46536;54.376;19.858;2022-12-16T00:35:53;101454.58;;;-3.24;70.03
60697;BME280;46536;54.376;19.858;2022-12-16T00:38:24;101456.26;;;-3.24;70.12
60697;BME280;46536;54.376;19.858;2022-12-16T00:40:53;101458.29;;;-3.24;70.08
60697;BME280;46536;54.376;19.858;2022-12-16T00:43:22;101456.86;;;-3.21;70.04
60697;BME280;46536;54.376;19.858;2022-12-16T00:45:50;101460.91;;;-3.22;69.85
60697;BME280;46536;54.376;19.858;2022-12-16T00:48:19;101457.01;;;-3.22;70.12
60697;BME280;46536;54.376;19.858;2022-12-16T00:50:52;101460.94;;;-3.21;70.05
60697;BME280;46536;54.376;19.858;2022-12-16T00:53:24;101465.55;;;-3.20;70.19
60697;BME280;46536;54.376;19.858;2022-12-16T00:56:07;101464.27;;;-3.18;70.09
60697;BME280;46536;54.376;19.858;2022-12-16T00:58:36;101466.46;;;-3.18;70.23
60697;BME280;46536;54.376;19.858;2022-12-16T01:01:05;101468.84;;;-3.13;70.06
60697;BME280;46536;54.376;19.858;2022-12-16T01:03:35;101471.01;;;-3.09;69.90
60697;BME280;46536;54.376;19.858;2022-12-16T01:06:09;101470.67;;;-3.09;69.93
60697;BME280;46536;54.376;19.858;2022-12-16T01:08:39;101474.65;;;-3.12;69.89
60697;BME280;46536;54.376;19.858;2022-12-16T01:11:09;101479.81;;;-3.15;69.91
60697;BME280;46536;54.376;19.858;2022-12-16T01:13:37;101476.31;;;-3.18;70.01
60697;BME280;46536;54.376;19.858;2022-12-16T01:16:06;101478.58;;;-3.22;70.09
60697;BME280;46536;54.376;19.858;2022-12-16T01:18:35;101476.98;;;-3.24;70.17
60697;BME280;46536;54.376;19.858;2022-12-16T01:21:05;101478.11;;;-3.26;70.12
60697;BME280;46536;54.376;19.858;2022-12-16T01:23:35;101479.02;;;-3.24;70.47
60697;BME280;46536;54.376;19.858;2022-12-16T01:26:04;101485.95;;;-3.20;70.36
60697;BME280;46536;54.376;19.858;2022-12-16T01:28:33;101488.16;;;-3.20;70.22
60697;BME280;46536;54.376;19.858;2022-12-16T01:31:02;101492.51;;;-3.22;70.04
60697;BME280;46536;54.376;19.858;2022-12-16T01:33:31;101491.64;;;-3.23;70.20
60697;BME280;46536;54.376;19.858;2022-12-16T01:36:03;101494.63;;;-3.25;70.27
60697;BME280;46536;54.376;19.858;2022-12-16T01:38:32;101490.84;;;-3.26;70.22
60697;BME280;46536;54.376;19.858;2022-12-16T01:41:02;101493.36;;;-3.22;70.30
60697;BME280;46536;54.376;19.858;2022-12-16T01:43:34;101495.46;;;-3.20;70.20
60697;BME280;46536;54.376;19.858;2022-12-16T01:46:07;101499.42;;;-3.24;70.18
60697;BME280;46536;54.376;19.858;2022-12-16T01:48:46;101494.70;;;-3.28;70.36
60697;BME280;46536;54.376;19.858;2022-12-16T01:51:37;101504.27;;;-3.26;70.33
60697;BME280;46536;54.376;19.858;2022-12-16T01:54:23;101508.73;;;-3.25;70.56
60697;BME280;46536;54.376;19.858;2022-12-16T01:56:55;101511.85;;;-3.23;70.54
60697;BME280;46536;54.376;19.858;2022-12-16T01:59:27;101516.67;;;-3.21;70.34
60697;BME280;46536;54.376;19.858;2022-12-16T02:01:58;101522.10;;;-3.21;70.55
60697;BME280;46536;54.376;19.858;2022-12-16T02:04:28;101528.11;;;-3.19;70.58
60697;BME280;46536;54.376;19.858;2022-12-16T02:06:57;101529.23;;;-3.21;70.26
60697;BME280;46536;54.376;19.858;2022-12-16T02:09:26;101529.37;;;-3.22;70.46
60697;BME280;46536;54.376;19.858;2022-12-16T02:32:09;101539.11;;;-3.10;70.54
60697;BME280;46536;54.376;19.858;2022-12-16T02:34:31;101545.39;;;-2.99;70.42
60697;BME280;46536;54.376;19.858;2022-12-16T02:37:37;101548.37;;;-2.92;70.03
60697;BME280;46536;54.376;19.858;2022-12-16T02:40:10;101544.01;;;-2.95;69.85
60697;BME280;46536;54.376;19.858;2022-12-16T02:43:03;101547.88;;;-3.01;69.82
60697;BME280;46536;54.376;19.858;2022-12-16T02:45:35;101551.71;;;-3.10;70.02
60697;BME280;46536;54.376;19.858;2022-12-16T02:48:05;101555.09;;;-3.10;70.18
60697;BME280;46536;54.376;19.858;2022-12-16T02:50:49;101557.90;;;-3.07;70.13
60697;BME280;46536;54.376;19.858;2022-12-16T02:53:18;101556.41;;;-3.06;70.12
60697;BME280;46536;54.376;19.858;2022-12-16T03:01:33;101543.95;;;-3.23;70.08
60697;BME280;46536;54.376;19.858;2022-12-16T03:04:10;101542.61;;;-3.22;70.24
60697;BME280;46536;54.376;19.858;2022-12-16T03:06:42;101540.64;;;-3.20;70.01
60697;BME280;46536;54.376;19.858;2022-12-16T03:09:15;101541.13;;;-3.15;70.18
60697;BME280;46536;54.376;19.858;2022-12-16T03:11:48;101533.27;;;-3.12;70.31
60697;BME280;46536;54.376;19.858;2022-12-16T03:14:19;101536.36;;;-3.06;70.03
60697;BME280;46536;54.376;19.858;2022-12-16T03:16:50;101538.56;;;-3.00;70.07
60697;BME280;46536;54.376;19.858;2022-12-16T03:19:19;101542.02;;;-2.99;70.06
60697;BME280;46536;54.376;19.858;2022-12-16T03:22:02;101542.66;;;-2.95;69.89
60697;BME280;46536;54.376;19.858;2022-12-16T03:24:34;101539.97;;;-2.94;69.80
60697;BME280;46536;54.376;19.858;2022-12-16T03:27:19;101539.42;;;-2.94;69.79
60697;BME280;46536;54.376;19.858;2022-12-16T03:30:02;101542.06;;;-2.92;69.77
60697;BME280;46536;54.376;19.858;2022-12-16T03:32:36;101544.60;;;-2.93;69.83
60697;BME280;46536;54.376;19.858;2022-12-16T03:35:18;101543.14;;;-2.90;69.68
60697;BME280;46536;54.376;19.858;2022-12-16T03:37:50;101542.23;;;-2.92;69.64
60697;BME280;46536;54.376;19.858;2022-12-16T03:40:21;101542.52;;;-2.94;69.52
60697;BME280;46536;54.376;19.858;2022-12-16T03:42:52;101540.60;;;-2.95;69.70
60697;BME280;46536;54.376;19.858;2022-12-16T03:45:24;101542.33;;;-2.94;69.61
60697;BME280;46536;54.376;19.858;2022-12-16T03:47:56;101542.84;;;-2.99;69.77
60697;BME280;46536;54.376;19.858;2022-12-16T03:50:31;101544.00;;;-3.06;69.63
60697;BME280;46536;54.376;19.858;2022-12-16T03:53:01;101541.11;;;-3.11;69.64
60697;BME280;46536;54.376;19.858;2022-12-16T03:55:29;101540.70;;;-3.13;69.73
60697;BME280;46536;54.376;19.858;2022-12-16T03:57:58;101536.58;;;-3.14;69.73
60697;BME280;46536;54.376;19.858;2022-12-16T04:00:26;101539.55;;;-3.17;69.94
60697;BME280;46536;54.376;19.858;2022-12-16T04:02:55;101543.57;;;-3.19;69.93
60697;BME280;46536;54.376;19.858;2022-12-16T04:05:24;101543.11;;;-3.23;69.99
60697;BME280;46536;54.376;19.858;2022-12-16T04:07:53;101547.81;;;-3.25;69.97
60697;BME280;46536;54.376;19.858;2022-12-16T04:10:29;101547.77;;;-3.31;70.00
60697;BME280;46536;54.376;19.858;2022-12-16T04:13:16;101546.89;;;-3.37;70.19
60697;BME280;46536;54.376;19.858;2022-12-16T04:16:04;101551.00;;;-3.36;70.41
60697;BME280;46536;54.376;19.858;2022-12-16T04:18:51;101551.63;;;-3.27;70.38
60697;BME280;46536;54.376;19.858;2022-12-16T04:21:38;101548.40;;;-3.22;70.14
60697;BME280;46536;54.376;19.858;2022-12-16T04:24:28;101551.65;;;-3.21;70.18
60697;BME280;46536;54.376;19.858;2022-12-16T04:26:57;101550.62;;;-3.27;70.34
60697;BME280;46536;54.376;19.858;2022-12-16T04:29:44;101549.23;;;-3.32;70.28
60697;BME280;46536;54.376;19.858;2022-12-16T04:32:31;101553.95;;;-3.34;70.13
60697;BME280;46536;54.376;19.858;2022-12-16T04:35:20;101553.54;;;-3.36;70.42
60697;BME280;46536;54.376;19.858;2022-12-16T04:38:07;101552.36;;;-3.31;70.50
60697;BME280;46536;54.376;19.858;2022-12-16T04:40:54;101550.88;;;-3.24;70.28
60697;BME280;46536;54.376;19.858;2022-12-16T04:43:40;101549.77;;;-3.16;70.38
60697;BME280;46536;54.376;19.858;2022-12-16T04:46:28;101544.98;;;-3.08;70.13
60697;BME280;46536;54.376;19.858;2022-12-16T04:49:15;101540.63;;;-2.99;70.05
60697;BME280;46536;54.376;19.858;2022-12-16T04:52:03;101535.88;;;-2.99;69.92
60697;BME280;46536;54.376;19.858;2022-12-16T04:54:50;101536.94;;;-2.97;69.78
60697;BME280;46536;54.376;19.858;2022-12-16T04:57:38;101533.77;;;-2.96;69.76
60697;BME280;46536;54.376;19.858;2022-12-16T05:00:25;101537.75;;;-2.94;69.85
60697;BME280;46536;54.376;19.858;2022-12-16T05:03:12;101544.04;;;-2.94;69.65
60697;BME280;46536;54.376;19.858;2022-12-16T05:06:00;101546.20;;;-2.95;69.61
60697;BME280;46536;54.376;19.858;2022-12-16T05:08:47;101548.33;;;-2.97;69.80
60697;BME280;46536;54.376;19.858;2022-12-16T05:11:34;101546.85;;;-3.08;69.84
60697;BME280;46536;54.376;19.858;2022-12-16T05:14:22;101547.70;;;-3.12;69.82
60697;BME280;46536;54.376;19.858;2022-12-16T05:17:09;101546.20;;;-3.17;69.94
60697;BME280;46536;54.376;19.858;2022-12-16T05:19:57;101544.01;;;-3.21;70.04
60697;BME280;46536;54.376;19.858;2022-12-16T05:22:45;101542.48;;;-3.26;70.33
60697;BME280;46536;54.376;19.858;2022-12-16T05:25:32;101544.01;;;-3.31;70.27
60697;BME280;46536;54.376;19.858;2022-12-16T05:28:20;101541.81;;;-3.36;70.48
60697;BME280;46536;54.376;19.858;2022-12-16T05:31:07;101543.39;;;-3.40;70.65
60697;BME280;46536;54.376;19.858;2022-12-16T05:33:54;101544.30;;;-3.44;70.57
60697;BME280;46536;54.376;19.858;2022-12-16T05:36:41;101549.15;;;-3.40;70.74
60697;BME280;46536;54.376;19.858;2022-12-16T05:39:28;101544.73;;;-3.36;70.91
60697;BME280;46536;54.376;19.858;2022-12-16T05:42:15;101548.65;;;-3.30;70.70
60697;BME280;46536;54.376;19.858;2022-12-16T05:45:02;101549.90;;;-3.28;70.82
60697;BME280;46536;54.376;19.858;2022-12-16T05:47:50;101550.13;;;-3.31;70.73
60697;BME280;46536;54.376;19.858;2022-12-16T05:50:37;101548.80;;;-3.30;70.74
60697;BME280;46536;54.376;19.858;2022-12-16T05:53:24;101547.59;;;-3.26;70.81
60697;BME280;46536;54.376;19.858;2022-12-16T05:56:11;101552.84;;;-3.21;70.81
60697;BME280;46536;54.376;19.858;2022-12-16T05:58:59;101556.36;;;-3.18;70.59
60697;BME280;46536;54.376;19.858;2022-12-16T06:01:47;101559.58;;;-3.13;70.66
60697;BME280;46536;54.376;19.858;2022-12-16T06:04:35;101563.19;;;-3.07;70.63
60697;BME280;46536;54.376;19.858;2022-12-16T06:07:22;101569.20;;;-2.99;70.54
60697;BME280;46536;54.376;19.858;2022-12-16T06:10:10;101574.66;;;-2.93;70.44
60697;BME280;46536;54.376;19.858;2022-12-16T06:13:17;101571.92;;;-2.94;70.39
60697;BME280;46536;54.376;19.858;2022-12-16T06:16:05;101573.24;;;-2.95;70.24
60697;BME280;46536;54.376;19.858;2022-12-16T06:18:52;101579.01;;;-3.00;69.98
60697;BME280;46536;54.376;19.858;2022-12-16T06:21:39;101580.64;;;-3.02;70.10
60697;BME280;46536;54.376;19.858;2022-12-16T06:24:27;101582.98;;;-3.04;70.30
60697;BME280;46536;54.376;19.858;2022-12-16T06:27:15;101585.77;;;-3.07;70.12
60697;BME280;46536;54.376;19.858;2022-12-16T06:30:03;101588.64;;;-3.08;70.51
60697;BME280;46536;54.376;19.858;2022-12-16T06:32:51;101589.77;;;-3.10;70.51
60697;BME280;46536;54.376;19.858;2022-12-16T06:35:38;101591.88;;;-3.12;70.31
60697;BME280;46536;54.376;19.858;2022-12-16T06:38:26;101596.39;;;-3.14;70.39
60697;BME280;46536;54.376;19.858;2022-12-16T06:41:14;101599.89;;;-3.16;70.40
60697;BME280;46536;54.376;19.858;2022-12-16T06:44:02;101604.48;;;-3.16;70.39
60697;BME280;46536;54.376;19.858;2022-12-16T06:47:03;101605.06;;;-3.14;70.67
60697;BME280;46536;54.376;19.858;2022-12-16T06:49:52;101603.52;;;-3.10;70.47
60697;BME280;46536;54.376;19.858;2022-12-16T06:52:42;101600.80;;;-3.05;70.52
60697;BME280;46536;54.376;19.858;2022-12-16T06:55:30;101602.35;;;-2.98;70.42
60697;BME280;46536;54.376;19.858;2022-12-16T06:58:19;101606.02;;;-2.91;70.29
60697;BME280;46536;54.376;19.858;2022-12-16T07:01:07;101609.95;;;-2.84;70.32
60697;BME280;46536;54.376;19.858;2022-12-16T07:03:55;101617.61;;;-2.79;69.95
60697;BME280;46536;54.376;19.858;2022-12-16T07:06:43;101623.92;;;-2.73;69.99
60697;BME280;46536;54.376;19.858;2022-12-16T07:09:30;101627.23;;;-2.65;69.90
60697;BME280;46536;54.376;19.858;2022-12-16T07:12:19;101636.69;;;-2.62;69.73
60697;BME280;46536;54.376;19.858;2022-12-16T07:15:07;101648.75;;;-2.68;69.61
60697;BME280;46536;54.376;19.858;2022-12-16T07:17:56;101659.91;;;-2.69;69.74
60697;BME280;46536;54.376;19.858;2022-12-16T07:20:44;101664.61;;;-2.72;69.47
60697;BME280;46536;54.376;19.858;2022-12-16T07:23:32;101669.81;;;-2.79;69.68
60697;BME280;46536;54.376;19.858;2022-12-16T07:26:20;101674.02;;;-2.80;69.75
60697;BME280;46536;54.376;19.858;2022-12-16T07:29:08;101675.09;;;-2.74;69.85
60697;BME280;46536;54.376;19.858;2022-12-16T07:31:56;101675.16;;;-2.71;69.71
60697;BME280;46536;54.376;19.858;2022-12-16T07:34:45;101672.34;;;-2.69;69.71
60697;BME280;46536;54.376;19.858;2022-12-16T07:37:35;101670.09;;;-2.65;69.59
60697;BME280;46536;54.376;19.858;2022-12-16T07:40:23;101666.86;;;-2.65;69.31
60697;BME280;46536;54.376;19.858;2022-12-16T07:43:11;101675.16;;;-2.71;69.57
60697;BME280;46536;54.376;19.858;2022-12-16T07:45:59;101676.61;;;-2.68;69.56
60697;BME280;46536;54.376;19.858;2022-12-16T07:48:47;101675.06;;;-2.63;69.58
60697;BME280;46536;54.376;19.858;2022-12-16T07:51:36;101683.02;;;-2.55;69.63
60697;BME280;46536;54.376;19.858;2022-12-16T07:54:27;101687.34;;;-2.47;69.52
60697;BME280;46536;54.376;19.858;2022-12-16T07:57:28;101688.85;;;-2.42;69.07
60697;BME280;46536;54.376;19.858;2022-12-16T08:00:19;101693.19;;;-2.45;69.21
60697;BME280;46536;54.376;19.858;2022-12-16T08:03:12;101691.02;;;-2.44;69.17
60697;BME280;46536;54.376;19.858;2022-12-16T08:06:04;101689.45;;;-2.40;68.99
60697;BME280;46536;54.376;19.858;2022-12-16T08:08:56;101691.83;;;-2.35;69.15
60697;BME280;46536;54.376;19.858;2022-12-16T08:11:47;101692.94;;;-2.32;68.83
60697;BME280;46536;54.376;19.858;2022-12-16T08:14:39;101691.59;;;-2.31;68.84
60697;BME280;46536;54.376;19.858;2022-12-16T08:17:29;101694.48;;;-2.36;68.39
60697;BME280;46536;54.376;19.858;2022-12-16T08:20:23;101695.31;;;-2.48;68.31
60697;BME280;46536;54.376;19.858;2022-12-16T08:23:15;101705.23;;;-2.61;68.45
60697;BME280;46536;54.376;19.858;2022-12-16T08:26:07;101700.27;;;-2.78;68.59
60697;BME280;46536;54.376;19.858;2022-12-16T08:28:58;101699.36;;;-2.95;68.95
60697;BME280;46536;54.376;19.858;2022-12-16T08:32:11;101702.98;;;-3.03;69.29
60697;BME280;46536;54.376;19.858;2022-12-16T08:35:03;101705.17;;;-3.09;69.29
60697;BME280;46536;54.376;19.858;2022-12-16T08:37:58;101700.77;;;-3.18;69.35
60697;BME280;46536;54.376;19.858;2022-12-16T08:40:49;101701.00;;;-3.21;69.54
60697;BME280;46536;54.376;19.858;2022-12-16T08:43:40;101705.43;;;-3.16;69.89
60697;BME280;46536;54.376;19.858;2022-12-16T08:46:31;101714.27;;;-3.11;69.63
60697;BME280;46536;54.376;19.858;2022-12-16T08:49:23;101717.61;;;-3.08;69.62
60697;BME280;46536;54.376;19.858;2022-12-16T09:00:32;101713.78;;;-2.91;69.45
60697;BME280;46536;54.376;19.858;2022-12-16T09:03:20;101711.16;;;-2.88;69.34
60697;BME280;46536;54.376;19.858;2022-12-16T09:06:07;101711.05;;;-2.86;69.44
60697;BME280;46536;54.376;19.858;2022-12-16T09:08:55;101706.63;;;-2.86;69.05
60697;BME280;46536;54.376;19.858;2022-12-16T09:11:59;101705.45;;;-2.86;69.31
60697;BME280;46536;54.376;19.858;2022-12-16T09:14:46;101708.58;;;-2.89;69.04
60697;BME280;46536;54.376;19.858;2022-12-16T09:17:41;101711.77;;;-2.95;68.87
60697;BME280;46536;54.376;19.858;2022-12-16T09:20:29;101714.61;;;-3.06;69.04
60697;BME280;46536;54.376;19.858;2022-12-16T09:23:17;101713.55;;;-3.17;69.13
60697;BME280;46536;54.376;19.858;2022-12-16T09:26:05;101717.58;;;-3.23;69.53
60697;BME280;46536;54.376;19.858;2022-12-16T09:28:53;101714.80;;;-3.30;69.49
60697;BME280;46536;54.376;19.858;2022-12-16T09:31:41;101708.38;;;-3.38;69.55
60697;BME280;46536;54.376;19.858;2022-12-16T09:34:28;101705.80;;;-3.44;69.91
60697;BME280;46536;54.376;19.858;2022-12-16T09:37:16;101702.59;;;-3.48;69.93
60697;BME280;46536;54.376;19.858;2022-12-16T09:40:12;101698.06;;;-3.50;69.98
60697;BME280;46536;54.376;19.858;2022-12-16T09:43:57;101698.21;;;-3.51;70.15
60697;BME280;46536;54.376;19.858;2022-12-16T09:47:09;101701.74;;;-3.57;70.34
60697;BME280;46536;54.376;19.858;2022-12-16T09:50:01;101712.13;;;-3.51;70.65
60697;BME280;46536;54.376;19.858;2022-12-16T09:52:58;101713.23;;;-3.45;70.62
60697;BME280;46536;54.376;19.858;2022-12-16T09:55:47;101708.45;;;-3.36;70.47
60697;BME280;46536;54.376;19.858;2022-12-16T09:58:57;101705.23;;;-3.26;70.48
60697;BME280;46536;54.376;19.858;2022-12-16T10:01:46;101705.06;;;-3.16;70.42
60697;BME280;46536;54.376;19.858;2022-12-16T10:04:33;101707.59;;;-3.13;69.91
60697;BME280;46536;54.376;19.858;2022-12-16T10:07:27;101704.38;;;-3.17;69.89
60697;BME280;46536;54.376;19.858;2022-12-16T10:14:10;101704.48;;;-3.19;69.91
60697;BME280;46536;54.376;19.858;2022-12-16T10:20:09;101692.55;;;-3.00;69.94
60697;BME280;46536;54.376;19.858;2022-12-16T10:29:18;101699.99;;;-2.71;69.42
60697;BME280;46536;54.376;19.858;2022-12-16T10:32:20;101697.79;;;-2.71;69.09
60697;BME280;46536;54.376;19.858;2022-12-16T10:35:43;101698.71;;;-2.68;68.99
60697;BME280;46536;54.376;19.858;2022-12-16T10:38:37;101697.73;;;-2.67;68.96
60697;BME280;46536;54.376;19.858;2022-12-16T10:41:31;101699.93;;;-2.68;68.69
60697;BME280;46536;54.376;19.858;2022-12-16T10:44:24;101691.82;;;-2.71;68.69
60697;BME280;46536;54.376;19.858;2022-12-16T10:47:12;101690.15;;;-2.76;68.44
60697;BME280;46536;54.376;19.858;2022-12-16T10:50:00;101689.33;;;-2.80;68.44
60697;BME280;46536;54.376;19.858;2022-12-16T10:59:35;101697.03;;;-2.83;68.87
60697;BME280;46536;54.376;19.858;2022-12-16T11:02:25;101698.77;;;-2.77;68.80
60697;BME280;46536;54.376;19.858;2022-12-16T11:05:32;101694.73;;;-2.71;68.79
60697;BME280;46536;54.376;19.858;2022-12-16T11:11:28;101680.19;;;-2.53;68.74
60697;BME280;46536;54.376;19.858;2022-12-16T11:20:23;101685.46;;;-2.26;68.32
60697;BME280;46536;54.376;19.858;2022-12-16T11:26:16;101682.98;;;-2.12;68.16
60697;BME280;46536;54.376;19.858;2022-12-16T11:29:15;101685.80;;;-2.09;67.70
60697;BME280;46536;54.376;19.858;2022-12-16T11:32:22;101685.76;;;-2.11;67.40
60697;BME280;46536;54.376;19.858;2022-12-16T11:35:16;101681.99;;;-2.11;67.57
60697;BME280;46536;54.376;19.858;2022-12-16T11:38:13;101681.64;;;-2.12;67.42
60697;BME280;46536;54.376;19.858;2022-12-16T11:41:03;101680.91;;;-2.08;67.44
60697;BME280;46536;54.376;19.858;2022-12-16T11:43:52;101680.45;;;-2.07;67.08
60697;BME280;46536;54.376;19.858;2022-12-16T11:46:40;101681.74;;;-2.08;67.16
60697;BME280;46536;54.376;19.858;2022-12-16T11:49:32;101685.30;;;-2.09;67.17
60697;BME280;46536;54.376;19.858;2022-12-16T11:52:20;101685.55;;;-2.12;67.16
60697;BME280;46536;54.376;19.858;2022-12-16T11:55:16;101686.20;;;-2.13;67.20
60697;BME280;46536;54.376;19.858;2022-12-16T11:58:44;101688.96;;;-2.12;67.33
60697;BME280;46536;54.376;19.858;2022-12-16T12:01:48;101685.35;;;-2.07;67.23
60697;BME280;46536;54.376;19.858;2022-12-16T12:04:38;101684.42;;;-2.05;67.07
60697;BME280;46536;54.376;19.858;2022-12-16T12:16:55;101688.45;;;-2.06;66.94
60697;BME280;46536;54.376;19.858;2022-12-16T12:23:03;101680.33;;;-1.99;66.89
60697;BME280;46536;54.376;19.858;2022-12-16T12:26:05;101682.58;;;-1.98;66.81
60697;BME280;46536;54.376;19.858;2022-12-16T12:32:23;101688.08;;;-1.91;66.90
60697;BME280;46536;54.376;19.858;2022-12-16T12:48:01;101680.67;;;-1.76;66.27
60697;BME280;46536;54.376;19.858;2022-12-16T12:51:25;101682.21;;;-1.75;66.15
60697;BME280;46536;54.376;19.858;2022-12-16T12:57:22;101699.53;;;-1.72;66.01
60697;BME280;46536;54.376;19.858;2022-12-16T13:00:23;101705.60;;;-1.74;65.92
60697;BME280;46536;54.376;19.858;2022-12-16T13:06:24;101711.89;;;-1.74;65.86
60697;BME280;46536;54.376;19.858;2022-12-16T13:12:27;101706.77;;;-1.75;65.74
60697;BME280;46536;54.376;19.858;2022-12-16T13:15:35;101711.54;;;-1.74;65.64
60697;BME280;46536;54.376;19.858;2022-12-16T13:18:30;101715.35;;;-1.78;65.73
60697;BME280;46536;54.376;19.858;2022-12-16T13:27:13;101725.91;;;-1.90;65.78
60697;BME280;46536;54.376;19.858;2022-12-16T13:30:19;101730.40;;;-1.92;65.73
60697;BME280;46536;54.376;19.858;2022-12-16T13:33:25;101731.23;;;-1.93;65.76
60697;BME280;46536;54.376;19.858;2022-12-16T13:36:15;101733.82;;;-1.92;65.91
60697;BME280;46536;54.376;19.858;2022-12-16T13:42:29;101741.08;;;-1.89;65.73
60697;BME280;46536;54.376;19.858;2022-12-16T13:45:31;101744.71;;;-1.87;65.78
60697;BME280;46536;54.376;19.858;2022-12-16T13:48:35;101747.46;;;-1.87;65.57
60697;BME280;46536;54.376;19.858;2022-12-16T13:54:30;101751.76;;;-1.96;65.72
60697;BME280;46536;54.376;19.858;2022-12-16T13:57:22;101757.95;;;-1.99;65.64
60697;BME280;46536;54.376;19.858;2022-12-16T14:00:19;101763.00;;;-2.01;65.73
60697;BME280;46536;54.376;19.858;2022-12-16T14:03:21;101767.27;;;-2.01;65.97
60697;BME280;46536;54.376;19.858;2022-12-16T14:06:16;101767.63;;;-2.00;66.12
60697;BME280;46536;54.376;19.858;2022-12-16T14:09:05;101766.45;;;-2.00;65.83
60697;BME280;46536;54.376;19.858;2022-12-16T14:12:12;101767.31;;;-1.99;65.73
60697;BME280;46536;54.376;19.858;2022-12-16T14:15:16;101766.13;;;-1.99;65.78
60697;BME280;46536;54.376;19.858;2022-12-16T14:18:21;101765.27;;;-1.99;65.79
60697;BME280;46536;54.376;19.858;2022-12-16T14:21:16;101763.42;;;-1.98;65.92
60697;BME280;46536;54.376;19.858;2022-12-16T14:24:16;101765.36;;;-1.96;65.90
60697;BME280;46536;54.376;19.858;2022-12-16T14:27:18;101764.42;;;-1.93;65.82
60697;BME280;46536;54.376;19.858;2022-12-16T14:30:23;101772.77;;;-1.93;65.82
60697;BME280;46536;54.376;19.858;2022-12-16T14:33:25;101782.54;;;-1.92;65.81
60697;BME280;46536;54.376;19.858;2022-12-16T14:36:24;101793.78;;;-1.92;65.71
60697;BME280;46536;54.376;19.858;2022-12-16T14:39:25;101790.88;;;-1.91;65.74
60697;BME280;46536;54.376;19.858;2022-12-16T14:42:18;101788.15;;;-1.92;65.72
60697;BME280;46536;54.376;19.858;2022-12-16T14:45:48;101793.77;;;-1.91;65.78
60697;BME280;46536;54.376;19.858;2022-12-16T14:48:37;101805.39;;;-1.91;65.60
60697;BME280;46536;54.376;19.858;2022-12-16T14:57:19;101812.13;;;-1.98;65.49
60697;BME280;46536;54.376;19.858;2022-12-16T15:02:58;101808.96;;;-2.06;65.50
60697;BME280;46536;54.376;19.858;2022-12-16T15:05:48;101815.15;;;-2.09;65.46
60697;BME280;46536;54.376;19.858;2022-12-16T15:08:54;101812.86;;;-2.12;65.70
60697;BME280;46536;54.376;19.858;2022-12-16T15:11:43;101816.72;;;-2.14;65.56
60697;BME280;46536;54.376;19.858;2022-12-16T15:14:34;101816.83;;;-2.16;65.71
60697;BME280;46536;54.376;19.858;2022-12-16T15:17:45;101815.10;;;-2.16;65.77
60697;BME280;46536;54.376;19.858;2022-12-16T15:20:36;101811.92;;;-2.20;65.61
60697;BME280;46536;54.376;19.858;2022-12-16T15:23:27;101812.48;;;-2.24;65.84
60697;BME280;46536;54.376;19.858;2022-12-16T15:26:22;101814.77;;;-2.26;65.86
60697;BME280;46536;54.376;19.858;2022-12-16T15:41:04;101835.99;;;-2.27;65.92
60697;BME280;46536;54.376;19.858;2022-12-16T15:43:53;101836.05;;;-2.31;65.94
60697;BME280;46536;54.376;19.858;2022-12-16T15:46:46;101834.07;;;-2.34;66.01
60697;BME280;46536;54.376;19.858;2022-12-16T15:49:37;101836.30;;;-2.33;65.97
60697;BME280;46536;54.376;19.858;2022-12-16T15:52:40;101837.02;;;-2.33;66.09
60697;BME280;46536;54.376;19.858;2022-12-16T15:55:30;101836.57;;;-2.31;66.20
60697;BME280;46536;54.376;19.858;2022-12-16T15:58:36;101839.48;;;-2.30;65.94
60697;BME280;46536;54.376;19.858;2022-12-16T16:01:27;101836.59;;;-2.30;65.92
60697;BME280;46536;54.376;19.858;2022-12-16T16:07:19;101843.28;;;-2.28;66.14
60697;BME280;46536;54.376;19.858;2022-12-16T16:10:13;101849.19;;;-2.25;66.10
60697;BME280;46536;54.376;19.858;2022-12-16T16:13:01;101855.16;;;-2.25;66.06
60697;BME280;46536;54.376;19.858;2022-12-16T16:15:50;101854.17;;;-2.24;65.97
60697;BME280;46536;54.376;19.858;2022-12-16T16:18:40;101854.49;;;-2.24;65.98
60697;BME280;46536;54.376;19.858;2022-12-16T16:21:28;101861.36;;;-2.23;65.87
60697;BME280;46536;54.376;19.858;2022-12-16T16:24:16;101862.39;;;-2.22;65.71
60697;BME280;46536;54.376;19.858;2022-12-16T16:27:07;101862.45;;;-2.20;65.91
60697;BME280;46536;54.376;19.858;2022-12-16T16:29:58;101872.05;;;-2.19;65.96
60697;BME280;46536;54.376;19.858;2022-12-16T16:32:46;101882.51;;;-2.16;65.81
60697;BME280;46536;54.376;19.858;2022-12-16T16:35:34;101885.27;;;-2.15;65.75
60697;BME280;46536;54.376;19.858;2022-12-16T16:38:41;101885.14;;;-2.14;65.71
60697;BME280;46536;54.376;19.858;2022-12-16T16:41:29;101890.24;;;-2.14;65.68